Time,TemperatureF,DewpointF,PressureIn,WindDirection,WindDirectionDegrees,WindSpeedMPH,WindSpeedGustMPH,Humidity,HourlyPrecipIn,Conditions,Clouds,dailyrainin,SoftwareType,DateUTC
2013-03-30 00:00:00,62.0,54.0,29.95,NNW,334,0.0,0.0,75,0.00,,CLR,0.00,VWS V14.00,2013-03-30 07:00:00,
2013-03-30 00:05:00,62.1,54.5,29.96,NNW,334,0.0,0.0,76,0.00,,CLR,0.00,VWS V14.00,2013-03-30 07:05:00,
2013-03-30 00:10:00,62.1,54.5,29.96,NNW,334,0.0,0.0,76,0.00,,CLR,0.00,VWS V14.00,2013-03-30 07:10:00,
2013-03-30 00:15:00,62.0,54.4,29.95,NNW,334,0.0,0.0,76,0.00,,CLR,0.00,VWS V14.00,2013-03-30 07:15:00,
2013-03-30 00:20:00,61.8,54.2,29.95,NNW,334,0.0,0.0,76,0.00,,CLR,0.00,VWS V14.00,2013-03-30 07:20:00,
2013-03-30 00:25:00,61.9,54.6,29.96,NNW,334,0.0,0.0,77,0.00,,CLR,0.00,VWS V14.00,2013-03-30 07:25:00,
2013-03-30 00:30:00,61.5,54.2,29.96,NNW,334,0.0,0.0,77,0.00,,CLR,0.00,VWS V14.00,2013-03-30 07:30:00,
2013-03-30 00:31:00,61.8,54.5,29.96,NNW,334,0.0,0.0,77,0.00,,CLR,0.00,VWS V14.00,2013-03-30 07:31:00,
2013-03-30 00:35:00,61.6,54.3,29.96,NNW,334,0.0,0.0,77,0.00,,CLR,0.00,VWS V14.00,2013-03-30 07:35:00,
2013-03-30 00:41:00,61.4,54.1,29.96,NNW,334,0.0,0.0,77,0.00,,CLR,0.00,VWS V14.00,2013-03-30 07:41:00,
2013-03-30 00:46:00,61.3,54.0,29.96,NNW,334,0.0,0.0,77,0.00,,CLR,0.00,VWS V14.00,2013-03-30 07:46:00,
2013-03-30 00:51:00,61.2,53.6,29.96,NNW,334,0.0,0.0,76,0.00,,CLR,0.00,VWS V14.00,2013-03-30 07:51:00,
2013-03-30 00:56:00,61.0,53.4,29.96,NNW,334,0.0,0.0,76,0.00,,CLR,0.00,VWS V14.00,2013-03-30 07:56:00,
2013-03-30 01:00:00,60.9,53.3,29.96,NNW,334,0.0,0.0,76,0.00,,CLR,0.00,VWS V14.00,2013-03-30 08:00:00,
2013-03-30 01:01:00,60.9,53.3,29.96,NNW,334,0.0,0.0,76,0.00,,CLR,0.00,VWS V14.00,2013-03-30 08:01:00,
2013-03-30 01:06:00,60.7,53.1,29.96,NNW,334,0.0,0.0,76,0.00,,CLR,0.00,VWS V14.00,2013-03-30 08:06:00,
2013-03-30 01:11:00,60.4,52.8,29.97,NNW,334,0.0,0.0,76,0.00,,CLR,0.00,VWS V14.00,2013-03-30 08:11:00,
2013-03-30 01:16:00,60.6,53.4,29.96,NNW,334,0.0,0.0,77,0.00,,CLR,0.00,VWS V14.00,2013-03-30 08:16:00,
2013-03-30 01:21:00,60.3,53.1,29.97,NNW,334,0.0,0.0,77,0.00,,CLR,0.00,VWS V14.00,2013-03-30 08:21:00,
2013-03-30 01:26:00,60.1,53.2,29.96,NNW,334,0.0,0.0,78,0.00,,CLR,0.00,VWS V14.00,2013-03-30 08:26:00,
2013-03-30 01:30:00,60.3,53.1,29.96,NNW,334,0.0,0.0,77,0.00,,CLR,0.00,VWS V14.00,2013-03-30 08:30:00,
2013-03-30 01:31:00,60.2,53.0,29.96,NNW,334,0.0,0.0,77,0.00,,CLR,0.00,VWS V14.00,2013-03-30 08:31:00,
2013-03-30 01:36:00,59.9,52.3,29.97,NNW,334,0.0,0.0,76,0.00,,CLR,0.00,VWS V14.00,2013-03-30 08:36:00,
2013-03-30 01:41:00,60.1,52.5,29.97,NNW,334,0.0,1.0,76,0.00,,CLR,0.00,VWS V14.00,2013-03-30 08:41:00,
2013-03-30 01:46:00,60.2,53.0,29.97,NNW,334,0.0,1.0,77,0.00,,CLR,0.00,VWS V14.00,2013-03-30 08:46:00,
2013-03-30 01:51:00,59.9,52.7,29.96,NNW,334,0.0,1.0,77,0.00,,CLR,0.00,VWS V14.00,2013-03-30 08:51:00,
2013-03-30 01:56:00,60.0,52.8,29.97,NNW,334,0.0,1.0,77,0.00,,CLR,0.00,VWS V14.00,2013-03-30 08:56:00,
2013-03-30 02:00:00,59.9,53.0,29.96,NNW,334,0.0,1.0,78,0.00,,CLR,0.00,VWS V14.00,2013-03-30 09:00:00,
2013-03-30 02:01:00,59.8,52.9,29.96,NNW,334,0.0,0.0,78,0.00,,CLR,0.00,VWS V14.00,2013-03-30 09:01:00,
2013-03-30 02:06:00,59.8,52.9,29.96,NNW,334,0.0,0.0,78,0.00,,CLR,0.00,VWS V14.00,2013-03-30 09:06:00,
2013-03-30 02:11:00,59.5,52.6,29.96,NNW,334,0.0,0.0,78,0.00,,CLR,0.00,VWS V14.00,2013-03-30 09:11:00,
2013-03-30 02:16:00,59.6,52.7,29.96,NNW,334,0.0,0.0,78,0.00,,CLR,0.00,VWS V14.00,2013-03-30 09:16:00,
2013-03-30 02:21:00,59.5,52.6,29.96,NNW,334,0.0,0.0,78,0.00,,CLR,0.00,VWS V14.00,2013-03-30 09:21:00,
2013-03-30 02:26:00,59.5,53.0,29.96,NNW,334,0.0,0.0,79,0.00,,CLR,0.00,VWS V14.00,2013-03-30 09:26:00,
2013-03-30 02:30:00,59.4,53.2,29.96,NNW,334,0.0,0.0,80,0.00,,CLR,0.00,VWS V14.00,2013-03-30 09:30:00,
2013-03-30 02:31:00,59.2,53.0,29.96,NNW,334,0.0,0.0,80,0.00,,CLR,0.00,VWS V14.00,2013-03-30 09:31:00,
2013-03-30 02:34:00,59.5,53.7,29.96,NNW,334,0.0,0.0,81,0.00,,CLR,0.00,VWS V14.00,2013-03-30 09:34:00,
2013-03-30 02:39:00,59.3,53.5,29.96,NNW,334,0.0,0.0,81,0.00,,CLR,0.00,VWS V14.00,2013-03-30 09:39:00,
2013-03-30 02:44:00,59.3,53.8,29.95,NNW,334,0.0,0.0,82,0.00,,CLR,0.00,VWS V14.00,2013-03-30 09:44:00,
2013-03-30 02:49:00,59.2,53.7,29.95,NNW,334,0.0,0.0,82,0.00,,CLR,0.00,VWS V14.00,2013-03-30 09:49:00,
2013-03-30 02:54:00,59.3,54.2,29.95,NNW,334,0.0,0.0,83,0.00,,CLR,0.00,VWS V14.00,2013-03-30 09:54:00,
2013-03-30 02:59:00,59.1,54.0,29.95,NNW,334,0.0,0.0,83,0.00,,CLR,0.00,VWS V14.00,2013-03-30 09:59:00,
2013-03-30 03:00:00,59.0,53.8,29.95,NNW,334,0.0,0.0,83,0.00,,CLR,0.00,VWS V14.00,2013-03-30 10:00:00,
2013-03-30 03:04:00,58.9,53.8,29.95,NNW,334,0.0,0.0,83,0.00,,CLR,0.00,VWS V14.00,2013-03-30 10:04:00,
2013-03-30 03:09:00,58.9,54.1,29.95,NNW,334,0.0,0.0,84,0.00,,CLR,0.00,VWS V14.00,2013-03-30 10:09:00,
2013-03-30 03:14:00,58.9,54.1,29.95,NNW,334,0.0,0.0,84,0.00,,CLR,0.00,VWS V14.00,2013-03-30 10:14:00,
2013-03-30 03:19:00,59.1,54.3,29.95,NNW,334,0.0,0.0,84,0.00,,CLR,0.00,VWS V14.00,2013-03-30 10:19:00,
2013-03-30 03:24:00,58.8,54.0,29.95,NNW,334,0.0,0.0,84,0.00,,CLR,0.00,VWS V14.00,2013-03-30 10:24:00,
2013-03-30 03:29:00,58.8,54.0,29.95,NNW,334,0.0,0.0,84,0.00,,CLR,0.00,VWS V14.00,2013-03-30 10:29:00,
2013-03-30 03:30:00,58.9,54.1,29.94,NNW,334,0.0,0.0,84,0.00,,CLR,0.00,VWS V14.00,2013-03-30 10:30:00,
2013-03-30 03:34:00,58.8,54.3,29.94,NNW,334,0.0,0.0,85,0.00,,CLR,0.00,VWS V14.00,2013-03-30 10:34:00,
2013-03-30 03:39:00,58.7,54.2,29.95,NNW,334,0.0,0.0,85,0.00,,CLR,0.00,VWS V14.00,2013-03-30 10:39:00,
2013-03-30 03:44:00,58.8,54.3,29.95,NNW,334,0.0,0.0,85,0.00,,CLR,0.00,VWS V14.00,2013-03-30 10:44:00,
2013-03-30 03:49:00,58.9,54.4,29.94,NNW,334,0.0,0.0,85,0.00,,CLR,0.00,VWS V14.00,2013-03-30 10:49:00,
2013-03-30 03:54:00,58.8,54.3,29.94,NNW,334,0.0,0.0,85,0.00,,CLR,0.00,VWS V14.00,2013-03-30 10:54:00,
2013-03-30 03:59:00,58.7,54.2,29.94,NNW,334,0.0,0.0,85,0.00,,CLR,0.00,VWS V14.00,2013-03-30 10:59:00,
2013-03-30 04:00:00,58.5,54.0,29.94,NNW,334,0.0,0.0,85,0.00,,CLR,0.00,VWS V14.00,2013-03-30 11:00:00,
2013-03-30 04:04:00,58.6,54.1,29.94,NNW,334,0.0,0.0,85,0.00,,CLR,0.00,VWS V14.00,2013-03-30 11:04:00,
2013-03-30 04:09:00,58.4,53.9,29.94,NNW,334,0.0,0.0,85,0.00,,CLR,0.00,VWS V14.00,2013-03-30 11:09:00,
2013-03-30 04:14:00,58.6,54.1,29.94,NNW,334,0.0,0.0,85,0.00,,CLR,0.00,VWS V14.00,2013-03-30 11:14:00,
2013-03-30 04:19:00,58.5,54.0,29.94,NNW,334,0.0,0.0,85,0.00,,CLR,0.00,VWS V14.00,2013-03-30 11:19:00,
2013-03-30 04:24:00,58.4,54.2,29.94,NNW,334,0.0,0.0,86,0.00,,CLR,0.00,VWS V14.00,2013-03-30 11:24:00,
2013-03-30 04:29:00,58.4,54.2,29.94,NNW,334,0.0,0.0,86,0.00,,CLR,0.00,VWS V14.00,2013-03-30 11:29:00,
2013-03-30 04:30:00,58.2,54.0,29.95,NNW,334,0.0,0.0,86,0.00,,CLR,0.00,VWS V14.00,2013-03-30 11:30:00,
2013-03-30 04:34:00,58.2,54.0,29.94,NNW,334,0.0,0.0,86,0.00,,CLR,0.00,VWS V14.00,2013-03-30 11:34:00,
2013-03-30 04:39:00,58.3,54.1,29.94,NNW,334,0.0,0.0,86,0.00,,CLR,0.00,VWS V14.00,2013-03-30 11:39:00,
2013-03-30 04:44:00,58.3,54.1,29.94,NNW,334,0.0,0.0,86,0.00,,CLR,0.00,VWS V14.00,2013-03-30 11:44:00,
2013-03-30 04:49:00,58.0,53.8,29.94,NNW,334,0.0,0.0,86,0.00,,CLR,0.00,VWS V14.00,2013-03-30 11:49:00,
2013-03-30 04:54:00,58.0,53.8,29.93,NNW,334,0.0,0.0,86,0.00,,CLR,0.00,VWS V14.00,2013-03-30 11:54:00,
2013-03-30 04:59:00,57.8,54.0,29.93,NNW,334,0.0,0.0,87,0.00,,CLR,0.00,VWS V14.00,2013-03-30 11:59:00,
2013-03-30 05:00:00,57.8,54.0,29.93,NNW,334,0.0,0.0,87,0.00,,CLR,0.00,VWS V14.00,2013-03-30 12:00:00,
2013-03-30 05:04:00,57.6,53.8,29.93,NNW,334,0.0,0.0,87,0.00,,CLR,0.00,VWS V14.00,2013-03-30 12:04:00,
2013-03-30 05:09:00,57.7,53.9,29.93,NNW,334,0.0,0.0,87,0.00,,CLR,0.00,VWS V14.00,2013-03-30 12:09:00,
2013-03-30 05:14:00,57.9,54.1,29.93,NNW,334,0.0,0.0,87,0.00,,CLR,0.00,VWS V14.00,2013-03-30 12:14:00,
2013-03-30 05:19:00,57.6,53.8,29.93,NNW,334,0.0,0.0,87,0.00,,CLR,0.00,VWS V14.00,2013-03-30 12:19:00,
2013-03-30 05:24:00,57.7,53.5,29.93,NNW,334,0.0,0.0,86,0.00,,CLR,0.00,VWS V14.00,2013-03-30 12:24:00,
2013-03-30 05:29:00,57.5,53.3,29.93,NNW,334,0.0,0.0,86,0.00,,CLR,0.00,VWS V14.00,2013-03-30 12:29:00,
2013-03-30 05:30:00,57.4,53.2,29.94,NNW,334,0.0,0.0,86,0.00,,CLR,0.00,VWS V14.00,2013-03-30 12:30:00,
2013-03-30 05:34:00,57.3,53.2,29.93,NNW,334,0.0,0.0,86,0.00,,CLR,0.00,VWS V14.00,2013-03-30 12:34:00,
2013-03-30 05:39:00,57.4,53.2,29.93,NNW,334,0.0,0.0,86,0.00,,CLR,0.00,VWS V14.00,2013-03-30 12:39:00,
2013-03-30 05:44:00,57.4,53.2,29.94,NNW,334,0.0,0.0,86,0.00,,CLR,0.00,VWS V14.00,2013-03-30 12:44:00,
2013-03-30 05:49:00,57.4,53.6,29.93,NNW,334,0.0,0.0,87,0.00,,CLR,0.00,VWS V14.00,2013-03-30 12:49:00,
2013-03-30 05:54:00,57.4,53.2,29.93,NNW,334,0.0,0.0,86,0.00,,CLR,0.00,VWS V14.00,2013-03-30 12:54:00,
2013-03-30 05:59:00,57.3,53.5,29.93,NNW,334,0.0,0.0,87,0.00,,CLR,0.00,VWS V14.00,2013-03-30 12:59:00,
2013-03-30 06:00:00,57.2,53.4,29.94,NNW,334,0.0,0.0,87,0.00,,CLR,0.00,VWS V14.00,2013-03-30 13:00:00,
2013-03-30 06:04:00,57.4,53.9,29.93,NNW,334,0.0,0.0,88,0.00,,CLR,0.00,VWS V14.00,2013-03-30 13:04:00,
2013-03-30 06:09:00,57.4,53.6,29.94,NNW,334,0.0,0.0,87,0.00,,CLR,0.00,VWS V14.00,2013-03-30 13:09:00,
2013-03-30 06:14:00,57.3,53.8,29.94,NNW,334,0.0,0.0,88,0.00,,CLR,0.00,VWS V14.00,2013-03-30 13:14:00,
2013-03-30 06:19:00,57.0,53.2,29.94,NNW,334,0.0,0.0,87,0.00,,CLR,0.00,VWS V14.00,2013-03-30 13:19:00,
2013-03-30 06:24:00,57.0,53.5,29.94,NNW,334,0.0,0.0,88,0.00,,CLR,0.00,VWS V14.00,2013-03-30 13:24:00,
2013-03-30 06:29:00,57.1,53.6,29.94,NNW,334,0.0,0.0,88,0.00,,CLR,0.00,VWS V14.00,2013-03-30 13:29:00,
2013-03-30 06:30:00,57.4,53.9,29.94,NNW,334,0.0,0.0,88,0.00,,CLR,0.00,VWS V14.00,2013-03-30 13:30:00,
2013-03-30 06:34:00,57.3,53.8,29.95,NNW,334,0.0,0.0,88,0.00,,CLR,0.00,VWS V14.00,2013-03-30 13:34:00,
2013-03-30 06:39:00,57.1,53.6,29.94,NNW,334,0.0,0.0,88,0.00,,CLR,0.00,VWS V14.00,2013-03-30 13:39:00,
2013-03-30 06:44:00,57.2,53.7,29.95,NNW,334,0.0,0.0,88,0.00,,CLR,0.00,VWS V14.00,2013-03-30 13:44:00,
2013-03-30 06:49:00,56.9,53.4,29.94,NNW,334,0.0,0.0,88,0.00,,CLR,0.00,VWS V14.00,2013-03-30 13:49:00,
2013-03-30 06:54:00,57.1,53.9,29.94,NNW,334,0.0,0.0,89,0.00,,CLR,0.00,VWS V14.00,2013-03-30 13:54:00,
2013-03-30 06:59:00,57.0,53.8,29.94,NNW,334,0.0,0.0,89,0.00,,CLR,0.00,VWS V14.00,2013-03-30 13:59:00,
2013-03-30 07:00:00,57.1,53.9,29.95,NNW,334,0.0,0.0,89,0.00,,CLR,0.00,VWS V14.00,2013-03-30 14:00:00,
2013-03-30 07:04:00,57.3,54.1,29.95,NNW,334,0.0,0.0,89,0.00,,CLR,0.00,VWS V14.00,2013-03-30 14:04:00,
2013-03-30 07:09:00,56.7,53.5,29.95,NNW,334,0.0,0.0,89,0.00,,CLR,0.00,VWS V14.00,2013-03-30 14:09:00,
2013-03-30 07:14:00,57.0,53.8,29.95,NNW,334,0.0,0.0,89,0.00,,CLR,0.00,VWS V14.00,2013-03-30 14:14:00,
2013-03-30 07:19:00,56.9,53.7,29.95,NNW,334,0.0,0.0,89,0.00,,CLR,0.00,VWS V14.00,2013-03-30 14:19:00,
2013-03-30 07:24:00,57.0,53.8,29.96,NNW,334,0.0,0.0,89,0.00,,CLR,0.00,VWS V14.00,2013-03-30 14:24:00,
2013-03-30 07:29:00,57.0,53.8,29.95,NNW,334,0.0,0.0,89,0.00,,CLR,0.00,VWS V14.00,2013-03-30 14:29:00,
2013-03-30 07:30:00,57.0,53.8,29.95,NNW,334,0.0,0.0,89,0.00,,CLR,0.00,VWS V14.00,2013-03-30 14:30:00,
2013-03-30 07:34:00,57.0,53.8,29.96,NNW,334,0.0,0.0,89,0.00,,CLR,0.00,VWS V14.00,2013-03-30 14:34:00,
2013-03-30 07:39:00,57.3,54.1,29.97,NNW,334,0.0,0.0,89,0.00,,CLR,0.00,VWS V14.00,2013-03-30 14:39:00,
2013-03-30 07:44:00,57.1,54.2,29.96,NNW,334,0.0,0.0,90,0.00,,CLR,0.00,VWS V14.00,2013-03-30 14:44:00,
2013-03-30 07:49:00,57.1,53.9,29.96,NNW,334,0.0,0.0,89,0.00,,BKN110,0.00,VWS V14.00,2013-03-30 14:49:00,
2013-03-30 07:54:00,57.1,53.9,29.96,NNW,334,0.0,0.0,89,0.00,,BKN110,0.00,VWS V14.00,2013-03-30 14:54:00,
2013-03-30 07:59:00,57.1,53.9,29.97,NNW,334,0.0,0.0,89,0.00,,BKN110,0.00,VWS V14.00,2013-03-30 14:59:00,
2013-03-30 08:00:00,57.0,53.8,29.97,NNW,334,0.0,0.0,89,0.00,,CLR,0.00,VWS V14.00,2013-03-30 15:00:00,
2013-03-30 08:04:00,57.2,54.3,29.97,NNW,334,0.0,0.0,90,0.00,,BKN110,0.00,VWS V14.00,2013-03-30 15:04:00,
2013-03-30 08:09:00,57.2,54.0,29.96,NNW,334,0.0,0.0,89,0.00,,BKN110,0.00,VWS V14.00,2013-03-30 15:09:00,
2013-03-30 08:14:00,57.1,54.2,29.97,NNW,334,0.0,0.0,90,0.00,,BKN110,0.00,VWS V14.00,2013-03-30 15:14:00,
2013-03-30 08:19:00,57.3,54.1,29.97,NNW,334,0.0,0.0,89,0.00,,BKN110,0.00,VWS V14.00,2013-03-30 15:19:00,
2013-03-30 08:24:00,57.2,53.7,29.96,NNW,334,0.0,0.0,88,0.00,,BKN110,0.00,VWS V14.00,2013-03-30 15:24:00,
2013-03-30 08:29:00,57.4,53.9,29.97,NNW,334,0.0,0.0,88,0.00,,BKN110,0.00,VWS V14.00,2013-03-30 15:29:00,
2013-03-30 08:30:00,57.4,53.9,29.97,NNW,334,0.0,0.0,88,0.00,,CLR,0.00,VWS V14.00,2013-03-30 15:30:00,
2013-03-30 08:34:00,57.3,53.8,29.97,NNW,334,0.0,0.0,88,0.00,,BKN110,0.00,VWS V14.00,2013-03-30 15:34:00,
2013-03-30 08:39:00,57.5,53.7,29.97,NNW,334,0.0,0.0,87,0.00,,BKN110,0.00,VWS V14.00,2013-03-30 15:39:00,
2013-03-30 08:44:00,57.7,53.9,29.97,NNW,334,0.0,0.0,87,0.00,,BKN110,0.00,VWS V14.00,2013-03-30 15:44:00,
2013-03-30 08:49:00,57.9,54.1,29.97,NNW,334,0.0,0.0,87,0.00,,FEW120,0.00,VWS V14.00,2013-03-30 15:49:00,
2013-03-30 08:54:00,57.9,54.1,29.97,NNW,334,0.0,0.0,87,0.00,,FEW120,0.00,VWS V14.00,2013-03-30 15:54:00,
2013-03-30 08:59:00,58.2,54.4,29.97,NNW,334,0.0,0.0,87,0.00,,FEW120,0.00,VWS V14.00,2013-03-30 15:59:00,
2013-03-30 09:00:00,58.1,54.3,29.97,NNW,334,0.0,0.0,87,0.00,,CLR,0.00,VWS V14.00,2013-03-30 16:00:00,
2013-03-30 09:04:00,58.3,54.1,29.97,NNW,334,0.0,0.0,86,0.00,,FEW120,0.00,VWS V14.00,2013-03-30 16:04:00,
2013-03-30 09:09:00,58.4,54.2,29.97,NNW,334,0.0,0.0,86,0.00,,FEW120,0.00,VWS V14.00,2013-03-30 16:09:00,
2013-03-30 09:14:00,58.6,54.1,29.97,NNW,334,0.0,0.0,85,0.00,,FEW120,0.00,VWS V14.00,2013-03-30 16:14:00,
2013-03-30 09:19:00,59.3,54.8,29.98,NNW,334,0.0,0.0,85,0.00,,FEW120,0.00,VWS V14.00,2013-03-30 16:19:00,
2013-03-30 09:24:00,59.2,54.7,29.97,NNW,334,0.0,0.0,85,0.00,,FEW120,0.00,VWS V14.00,2013-03-30 16:24:00,
2013-03-30 09:29:00,59.3,54.5,29.97,NNW,334,0.0,0.0,84,0.00,,FEW120,0.00,VWS V14.00,2013-03-30 16:29:00,
2013-03-30 09:30:00,59.4,54.6,29.97,NNW,334,0.0,0.0,84,0.00,,CLR,0.00,VWS V14.00,2013-03-30 16:30:00,
2013-03-30 09:34:00,59.7,54.9,29.97,NNW,344,0.0,0.0,84,0.00,,FEW120,0.00,VWS V14.00,2013-03-30 16:34:00,
2013-03-30 09:39:00,60.2,55.3,29.97,NNW,337,0.0,0.0,84,0.00,,FEW120,0.00,VWS V14.00,2013-03-30 16:39:00,
2013-03-30 09:44:00,60.4,55.5,29.97,NNW,344,0.0,0.0,84,0.00,,FEW120,0.00,VWS V14.00,2013-03-30 16:44:00,
2013-03-30 09:49:00,60.8,55.9,29.98,North,0,0.0,1.0,84,0.00,,BKN120,0.00,VWS V14.00,2013-03-30 16:49:00,
2013-03-30 09:54:00,60.9,55.7,29.98,North,0,0.0,1.0,83,0.00,,BKN120,0.00,VWS V14.00,2013-03-30 16:54:00,
2013-03-30 09:59:00,61.4,55.9,29.97,North,0,0.0,1.0,82,0.00,,BKN120,0.00,VWS V14.00,2013-03-30 16:59:00,
2013-03-30 10:00:00,61.4,55.9,29.97,North,0,0.0,1.0,82,0.00,,CLR,0.00,VWS V14.00,2013-03-30 17:00:00,
2013-03-30 10:04:00,62.0,56.1,29.97,North,0,0.0,1.0,81,0.00,,BKN120,0.00,VWS V14.00,2013-03-30 17:04:00,
2013-03-30 10:09:00,62.1,55.5,29.97,NE,35,0.0,2.0,79,0.00,,BKN120,0.00,VWS V14.00,2013-03-30 17:09:00,
2013-03-30 10:14:00,62.3,55.7,29.97,North,5,1.0,2.0,79,0.00,,BKN120,0.00,VWS V14.00,2013-03-30 17:14:00,
2013-03-30 10:19:00,62.6,56.0,29.98,NNW,348,0.0,2.0,79,0.00,,BKN120,0.00,VWS V14.00,2013-03-30 17:19:00,
2013-03-30 10:24:00,63.0,56.0,29.98,SW,216,0.0,2.0,78,0.00,,BKN120,0.00,VWS V14.00,2013-03-30 17:24:00,
2013-03-30 10:29:00,62.8,55.5,29.98,SSE,167,0.0,5.0,77,0.00,,BKN120,0.00,VWS V14.00,2013-03-30 17:29:00,
2013-03-30 10:30:00,62.8,55.5,29.98,SSE,167,0.0,5.0,77,0.00,,CLR,0.00,VWS V14.00,2013-03-30 17:30:00,
2013-03-30 10:34:00,63.2,55.9,29.98,South,177,0.0,1.0,77,0.00,,BKN120,0.00,VWS V14.00,2013-03-30 17:34:00,
2013-03-30 10:39:00,63.6,56.3,29.97,South,171,0.0,4.0,77,0.00,,BKN120,0.00,VWS V14.00,2013-03-30 17:39:00,
2013-03-30 10:44:00,64.0,56.7,29.97,South,189,5.0,6.0,77,0.00,,BKN120,0.00,VWS V14.00,2013-03-30 17:44:00,
2013-03-30 10:49:00,63.5,56.2,29.98,SW,216,0.0,6.0,77,0.00,,CLR,0.00,VWS V14.00,2013-03-30 17:49:00,
2013-03-30 10:54:00,64.2,56.8,29.98,South,184,0.0,6.0,77,0.00,,CLR,0.00,VWS V14.00,2013-03-30 17:54:00,
2013-03-30 10:59:00,64.4,57.0,29.98,SW,229,0.0,6.0,77,0.00,,CLR,0.00,VWS V14.00,2013-03-30 17:59:00,
2013-03-30 11:00:00,64.3,56.9,29.98,SW,229,0.0,6.0,77,0.00,,CLR,0.00,VWS V14.00,2013-03-30 18:00:00,
2013-03-30 11:04:00,64.3,57.0,29.98,SW,218,0.0,2.0,77,0.00,,CLR,0.00,VWS V14.00,2013-03-30 18:04:00,
2013-03-30 11:09:00,64.3,56.6,29.98,SW,224,0.0,3.0,76,0.00,,CLR,0.00,VWS V14.00,2013-03-30 18:09:00,
2013-03-30 11:14:00,64.3,56.6,29.98,SW,218,1.0,3.0,76,0.00,,CLR,0.00,VWS V14.00,2013-03-30 18:14:00,
2013-03-30 11:19:00,64.9,57.2,29.97,SSW,199,0.0,3.0,76,0.00,,CLR,0.00,VWS V14.00,2013-03-30 18:19:00,
2013-03-30 11:24:00,64.9,57.2,29.98,SSW,197,0.0,6.0,76,0.00,,CLR,0.00,VWS V14.00,2013-03-30 18:24:00,
2013-03-30 11:29:00,64.9,57.2,29.97,SSW,198,0.0,6.0,76,0.00,,CLR,0.00,VWS V14.00,2013-03-30 18:29:00,
2013-03-30 11:30:00,64.8,57.1,29.98,SSW,197,0.0,6.0,76,0.00,,CLR,0.00,VWS V14.00,2013-03-30 18:30:00,
2013-03-30 11:34:00,64.9,57.2,29.97,SSW,198,0.0,1.0,76,0.00,,CLR,0.00,VWS V14.00,2013-03-30 18:34:00,
2013-03-30 11:39:00,65.3,57.5,29.97,West,274,0.0,1.0,76,0.00,,CLR,0.00,VWS V14.00,2013-03-30 18:39:00,
2013-03-30 11:44:00,65.7,57.9,29.97,West,280,1.0,1.0,76,0.00,,CLR,0.00,VWS V14.00,2013-03-30 18:44:00,
2013-03-30 11:49:00,65.4,57.7,29.97,North,10,0.0,2.0,76,0.00,,BKN060,0.00,VWS V14.00,2013-03-30 18:49:00,
2013-03-30 11:54:00,65.5,57.4,29.97,North,8,0.0,2.0,75,0.00,,BKN060,0.00,VWS V14.00,2013-03-30 18:54:00,
2013-03-30 11:59:00,65.9,58.1,29.97,North,8,0.0,2.0,76,0.00,,BKN060,0.00,VWS V14.00,2013-03-30 18:59:00,
2013-03-30 12:00:00,65.8,58.0,29.97,North,8,0.0,2.0,76,0.00,,CLR,0.00,VWS V14.00,2013-03-30 19:00:00,
2013-03-30 12:04:00,66.4,58.2,29.98,North,0,0.0,1.0,75,0.00,,BKN060,0.00,VWS V14.00,2013-03-30 19:04:00,
2013-03-30 12:09:00,67.3,58.0,29.97,North,0,0.0,2.0,72,0.00,,BKN060,0.00,VWS V14.00,2013-03-30 19:09:00,
2013-03-30 12:14:00,67.4,57.3,29.97,NW,310,0.0,2.0,70,0.00,,BKN060,0.00,VWS V14.00,2013-03-30 19:14:00,
2013-03-30 12:19:00,67.9,57.8,29.97,WNW,291,0.0,2.0,70,0.00,,BKN060,0.00,VWS V14.00,2013-03-30 19:19:00,
2013-03-30 12:24:00,68.3,57.8,29.97,North,359,1.0,2.0,69,0.00,,BKN060,0.00,VWS V14.00,2013-03-30 19:24:00,
2013-03-30 12:29:00,68.3,57.8,29.97,North,0,0.0,2.0,69,0.00,,BKN060,0.00,VWS V14.00,2013-03-30 19:29:00,
2013-03-30 12:30:00,67.8,57.3,29.97,North,0,0.0,2.0,69,0.00,,CLR,0.00,VWS V14.00,2013-03-30 19:30:00,
2013-03-30 12:34:00,68.7,57.3,29.96,NNW,327,0.0,2.0,67,0.00,,BKN060,0.00,VWS V14.00,2013-03-30 19:34:00,
2013-03-30 12:39:00,69.3,57.9,29.97,NNW,328,0.0,2.0,67,0.00,,BKN060,0.00,VWS V14.00,2013-03-30 19:39:00,
2013-03-30 12:44:00,70.0,58.5,29.97,NNW,328,0.0,2.0,67,0.00,,BKN060,0.00,VWS V14.00,2013-03-30 19:44:00,
2013-03-30 12:49:00,70.2,57.9,29.97,NW,318,0.0,2.0,65,0.00,,BKN060,0.00,VWS V14.00,2013-03-30 19:49:00,
2013-03-30 12:54:00,69.9,57.6,29.97,NW,316,1.0,2.0,65,0.00,,BKN060,0.00,VWS V14.00,2013-03-30 19:54:00,
2013-03-30 12:59:00,69.2,56.5,29.96,NW,311,0.0,2.0,64,0.00,,BKN060,0.00,VWS V14.00,2013-03-30 19:59:00,
2013-03-30 13:00:00,69.1,56.4,29.96,NW,311,0.0,2.0,64,0.00,,CLR,0.00,VWS V14.00,2013-03-30 20:00:00,
2013-03-30 13:04:00,69.7,57.4,29.97,NW,311,0.0,2.0,65,0.00,,BKN060,0.00,VWS V14.00,2013-03-30 20:04:00,
2013-03-30 13:09:00,69.4,56.7,29.96,NW,310,0.0,2.0,64,0.00,,BKN060,0.00,VWS V14.00,2013-03-30 20:09:00,
2013-03-30 13:14:00,69.1,56.8,29.96,NW,310,0.0,2.0,65,0.00,,BKN060,0.00,VWS V14.00,2013-03-30 20:14:00,
2013-03-30 13:19:00,69.2,57.0,29.96,NW,310,0.0,2.0,65,0.00,,BKN060,0.00,VWS V14.00,2013-03-30 20:19:00,
2013-03-30 13:24:00,69.1,56.8,29.96,NW,309,1.0,2.0,65,0.00,,BKN060,0.00,VWS V14.00,2013-03-30 20:24:00,
2013-03-30 13:29:00,69.4,57.1,29.96,NW,309,0.0,2.0,65,0.00,,BKN060,0.00,VWS V14.00,2013-03-30 20:29:00,
2013-03-30 13:30:00,69.9,57.6,29.96,NW,309,0.0,2.0,65,0.00,,CLR,0.00,VWS V14.00,2013-03-30 20:30:00,
2013-03-30 13:34:00,70.1,57.8,29.95,NW,309,0.0,0.0,65,0.00,,BKN060,0.00,VWS V14.00,2013-03-30 20:34:00,
2013-03-30 13:39:00,70.5,58.2,29.95,NW,310,0.0,1.0,65,0.00,,BKN060,0.00,VWS V14.00,2013-03-30 20:39:00,
2013-03-30 13:44:00,70.6,57.8,29.95,NW,309,0.0,1.0,64,0.00,,BKN060,0.00,VWS V14.00,2013-03-30 20:44:00,
2013-03-30 13:49:00,71.4,58.6,29.94,North,350,0.0,3.0,64,0.00,,BKN060,0.00,VWS V14.00,2013-03-30 20:49:00,
2013-03-30 13:54:00,71.0,57.8,29.94,North,358,0.0,3.0,63,0.00,,BKN060,0.00,VWS V14.00,2013-03-30 20:54:00,
2013-03-30 13:59:00,71.1,57.9,29.94,North,355,0.0,3.0,63,0.00,,BKN060,0.00,VWS V14.00,2013-03-30 20:59:00,
2013-03-30 14:00:00,71.0,58.2,29.94,North,355,0.0,3.0,64,0.00,,CLR,0.00,VWS V14.00,2013-03-30 21:00:00,
2013-03-30 14:04:00,70.8,58.0,29.94,SW,236,0.0,2.0,64,0.00,,BKN080,0.00,VWS V14.00,2013-03-30 21:04:00,
2013-03-30 14:09:00,70.7,57.9,29.94,NNW,327,0.0,2.0,64,0.00,,BKN080,0.00,VWS V14.00,2013-03-30 21:09:00,
2013-03-30 14:14:00,70.6,57.8,29.93,NNW,334,0.0,2.0,64,0.00,,BKN080,0.00,VWS V14.00,2013-03-30 21:14:00,
2013-03-30 14:19:00,70.8,57.6,29.94,NNW,342,0.0,2.0,63,0.00,,BKN080,0.00,VWS V14.00,2013-03-30 21:19:00,
2013-03-30 14:24:00,70.8,57.6,29.93,NNW,346,0.0,2.0,63,0.00,,BKN080,0.00,VWS V14.00,2013-03-30 21:24:00,
2013-03-30 14:29:00,70.6,57.4,29.93,North,352,0.0,3.0,63,0.00,,BKN080,0.00,VWS V14.00,2013-03-30 21:29:00,
2013-03-30 14:30:00,70.8,57.6,29.93,North,351,0.0,3.0,63,0.00,,CLR,0.00,VWS V14.00,2013-03-30 21:30:00,
2013-03-30 14:34:00,70.3,56.7,29.92,North,352,0.0,0.0,62,0.00,,BKN080,0.00,VWS V14.00,2013-03-30 21:34:00,
2013-03-30 14:39:00,70.7,57.1,29.92,North,352,0.0,1.0,62,0.00,,BKN080,0.00,VWS V14.00,2013-03-30 21:39:00,
2013-03-30 14:44:00,71.7,57.5,29.92,North,0,0.0,2.0,61,0.00,,BKN080,0.00,VWS V14.00,2013-03-30 21:44:00,
2013-03-30 14:49:00,72.5,57.8,29.92,North,0,0.0,2.0,60,0.00,,BKN120,0.00,VWS V14.00,2013-03-30 21:49:00,
2013-03-30 14:54:00,73.9,57.2,29.92,North,357,0.0,2.0,56,0.00,,BKN120,0.00,VWS V14.00,2013-03-30 21:54:00,
2013-03-30 14:59:00,75.3,56.5,29.91,NNW,340,0.0,2.0,52,0.00,,BKN120,0.00,VWS V14.00,2013-03-30 21:59:00,
2013-03-30 15:00:00,74.8,56.0,29.91,NNW,340,0.0,2.0,52,0.00,,CLR,0.00,VWS V14.00,2013-03-30 22:00:00,
2013-03-30 15:04:00,75.9,57.0,29.91,NNW,346,0.0,1.0,52,0.00,,BKN120,0.00,VWS V14.00,2013-03-30 22:04:00,
2013-03-30 15:09:00,77.0,54.7,29.91,WSW,249,1.0,3.0,46,0.00,,BKN120,0.00,VWS V14.00,2013-03-30 22:09:00,
2013-03-30 15:14:00,77.2,53.6,29.91,WSW,250,0.0,7.0,44,0.00,,BKN120,0.00,VWS V14.00,2013-03-30 22:14:00,
2013-03-30 15:19:00,77.1,54.2,29.91,South,182,5.0,7.0,45,0.00,,BKN120,0.00,VWS V14.00,2013-03-30 22:19:00,
2013-03-30 15:24:00,76.8,54.5,29.91,SSW,213,0.0,7.0,46,0.00,,BKN120,0.00,VWS V14.00,2013-03-30 22:24:00,
2013-03-30 15:29:00,77.3,55.5,29.91,WSW,239,0.0,7.0,47,0.00,,BKN120,0.00,VWS V14.00,2013-03-30 22:29:00,
2013-03-30 15:30:00,77.3,54.9,29.91,WSW,240,0.0,7.0,46,0.00,,CLR,0.00,VWS V14.00,2013-03-30 22:30:00,
2013-03-30 15:34:00,77.5,55.7,29.91,South,189,1.0,4.0,47,0.00,,BKN120,0.00,VWS V14.00,2013-03-30 22:34:00,
2013-03-30 15:39:00,76.9,56.3,29.91,SW,216,2.0,4.0,49,0.00,,BKN120,0.00,VWS V14.00,2013-03-30 22:39:00,
2013-03-30 15:44:00,76.1,56.1,29.90,WSW,242,0.0,4.0,50,0.00,,BKN120,0.00,VWS V14.00,2013-03-30 22:44:00,
2013-03-30 15:49:00,76.3,56.9,29.90,WSW,252,0.0,4.0,51,0.00,,BKN100,0.00,VWS V14.00,2013-03-30 22:49:00,
2013-03-30 15:54:00,76.5,56.5,29.90,SSW,197,0.0,5.0,50,0.00,,BKN100,0.00,VWS V14.00,2013-03-30 22:54:00,
2013-03-30 15:59:00,77.7,56.5,29.89,SSW,208,0.0,6.0,48,0.00,,BKN100,0.00,VWS V14.00,2013-03-30 22:59:00,
2013-03-30 16:00:00,77.6,57.0,29.89,SSW,209,0.0,6.0,49,0.00,,CLR,0.00,VWS V14.00,2013-03-30 23:00:00,
2013-03-30 16:04:00,79.1,57.2,29.90,SSW,205,1.0,3.0,47,0.00,,BKN100,0.00,VWS V14.00,2013-03-30 23:04:00,
2013-03-30 16:09:00,79.1,55.3,29.89,SSW,198,3.0,7.0,44,0.00,,BKN100,0.00,VWS V14.00,2013-03-30 23:09:00,
2013-03-30 16:14:00,78.8,55.7,29.89,South,189,3.0,8.0,45,0.00,,BKN100,0.00,VWS V14.00,2013-03-30 23:14:00,
2013-03-30 16:19:00,79.4,56.2,29.89,SW,223,0.0,8.0,45,0.00,,BKN100,0.00,VWS V14.00,2013-03-30 23:19:00,
2013-03-30 16:24:00,79.5,55.7,29.89,SW,220,0.0,8.0,44,0.00,,BKN100,0.00,VWS V14.00,2013-03-30 23:24:00,
2013-03-30 16:29:00,79.0,56.5,29.89,WSW,237,3.0,8.0,46,0.00,,BKN100,0.00,VWS V14.00,2013-03-30 23:29:00,
2013-03-30 16:30:00,78.9,56.4,29.89,SW,231,1.0,8.0,46,0.00,,CLR,0.00,VWS V14.00,2013-03-30 23:30:00,
2013-03-30 16:34:00,77.5,56.3,29.89,SSW,213,0.0,6.0,48,0.00,,BKN100,0.00,VWS V14.00,2013-03-30 23:34:00,
2013-03-30 16:39:00,76.9,56.3,29.88,SW,222,0.0,6.0,49,0.00,,BKN100,0.00,VWS V14.00,2013-03-30 23:39:00,
2013-03-30 16:44:00,76.0,56.0,29.88,SW,234,0.0,6.0,50,0.00,,BKN100,0.00,VWS V14.00,2013-03-30 23:44:00,
2013-03-30 16:49:00,75.6,56.2,29.88,WSW,243,1.0,6.0,51,0.00,,CLR,0.00,VWS V14.00,2013-03-30 23:49:00,
2013-03-30 16:54:00,74.8,56.0,29.88,SSW,198,0.0,8.0,52,0.00,,CLR,0.00,VWS V14.00,2013-03-30 23:54:00,
2013-03-30 16:59:00,75.6,55.7,29.89,SW,236,0.0,8.0,50,0.00,,CLR,0.00,VWS V14.00,2013-03-30 23:59:00,
2013-03-30 17:00:00,75.9,56.0,29.89,SW,236,1.0,8.0,50,0.00,,CLR,0.00,VWS V14.00,2013-03-31 00:00:00,
2013-03-30 17:04:00,75.2,55.8,29.88,West,281,0.0,6.0,51,0.00,,CLR,0.00,VWS V14.00,2013-03-31 00:04:00,
2013-03-30 17:09:00,74.7,55.9,29.88,SW,224,0.0,6.0,52,0.00,,CLR,0.00,VWS V14.00,2013-03-31 00:09:00,
2013-03-30 17:14:00,74.1,55.9,29.88,WSW,238,1.0,7.0,53,0.00,,CLR,0.00,VWS V14.00,2013-03-31 00:14:00,
2013-03-30 17:19:00,73.8,55.1,29.89,West,265,0.0,7.0,52,0.00,,BKN100,0.00,VWS V14.00,2013-03-31 00:19:00,
2013-03-30 17:24:00,73.7,54.5,29.89,SW,231,0.0,7.0,51,0.00,,BKN100,0.00,VWS V14.00,2013-03-31 00:24:00,
2013-03-30 17:29:00,73.4,54.2,29.89,SW,231,0.0,7.0,51,0.00,,BKN100,0.00,VWS V14.00,2013-03-31 00:29:00,
2013-03-30 17:30:00,73.3,54.1,29.89,SW,231,0.0,7.0,51,0.00,,CLR,0.00,VWS V14.00,2013-03-31 00:30:00,
2013-03-30 17:34:00,73.5,55.3,29.89,SW,231,0.0,1.0,53,0.00,,BKN100,0.00,VWS V14.00,2013-03-31 00:34:00,
2013-03-30 17:39:00,72.6,55.0,29.89,SW,233,0.0,2.0,54,0.00,,BKN100,0.00,VWS V14.00,2013-03-31 00:39:00,
2013-03-30 17:44:00,72.1,55.6,29.89,SW,232,0.0,2.0,56,0.00,,BKN100,0.00,VWS V14.00,2013-03-31 00:44:00,
2013-03-30 17:49:00,71.8,56.2,29.89,SW,227,0.0,2.0,58,0.00,,BKN100,0.00,VWS V14.00,2013-03-31 00:49:00,
2013-03-30 17:54:00,71.6,56.5,29.89,SW,227,0.0,2.0,59,0.00,,BKN100,0.00,VWS V14.00,2013-03-31 00:54:00,
2013-03-30 17:59:00,71.0,55.5,29.88,SW,227,0.0,2.0,58,0.00,,BKN100,0.00,VWS V14.00,2013-03-31 00:59:00,
2013-03-30 18:00:00,71.7,56.2,29.88,SW,226,0.0,2.0,58,0.00,,CLR,0.00,VWS V14.00,2013-03-31 01:00:00,
2013-03-30 18:04:00,71.2,56.6,29.87,SW,227,0.0,0.0,60,0.00,,BKN100,0.00,VWS V14.00,2013-03-31 01:04:00,
2013-03-30 18:09:00,70.3,55.8,29.88,SW,227,0.0,1.0,60,0.00,,BKN100,0.00,VWS V14.00,2013-03-31 01:09:00,
2013-03-30 18:14:00,70.2,56.1,29.88,North,0,0.0,2.0,61,0.00,,BKN100,0.00,VWS V14.00,2013-03-31 01:14:00,
2013-03-30 18:19:00,70.1,56.5,29.89,North,0,0.0,2.0,62,0.00,,BKN100,0.00,VWS V14.00,2013-03-31 01:19:00,
2013-03-30 18:24:00,69.8,56.7,29.88,North,0,0.0,2.0,63,0.00,,BKN100,0.00,VWS V14.00,2013-03-31 01:24:00,
2013-03-30 18:29:00,69.6,56.9,29.89,NNW,341,0.0,2.0,64,0.00,,BKN100,0.00,VWS V14.00,2013-03-31 01:29:00,
2013-03-30 18:30:00,69.5,56.8,29.89,NNW,341,0.0,2.0,64,0.00,,CLR,0.00,VWS V14.00,2013-03-31 01:30:00,
2013-03-30 18:34:00,69.3,56.6,29.90,WNW,301,0.0,1.0,64,0.00,,BKN100,0.00,VWS V14.00,2013-03-31 01:34:00,
2013-03-30 18:39:00,69.0,56.3,29.90,NNW,336,0.0,2.0,64,0.00,,BKN100,0.00,VWS V14.00,2013-03-31 01:39:00,
2013-03-30 18:44:00,68.3,56.9,29.90,North,8,0.0,2.0,67,0.00,,BKN100,0.00,VWS V14.00,2013-03-31 01:44:00,
2013-03-30 18:49:00,67.7,56.4,29.88,ESE,109,0.0,2.0,67,0.00,,BKN090,0.00,VWS V14.00,2013-03-31 01:49:00,
2013-03-30 18:54:00,67.4,56.1,29.90,ENE,76,0.0,2.0,67,0.00,,BKN090,0.00,VWS V14.00,2013-03-31 01:54:00,
2013-03-30 18:59:00,66.6,56.1,29.92,NW,317,0.0,3.0,69,0.00,,BKN090,0.00,VWS V14.00,2013-03-31 01:59:00,
2013-03-30 19:00:00,66.5,56.0,29.92,West,265,1.0,3.0,69,0.00,,CLR,0.00,VWS V14.00,2013-03-31 02:00:00,
2013-03-30 19:04:00,65.8,56.9,29.91,North,0,0.0,1.0,73,0.01,,BKN090,0.01,VWS V14.00,2013-03-31 02:04:00,
2013-03-30 19:09:00,65.1,57.0,29.92,North,353,0.0,1.0,75,0.01,,BKN090,0.01,VWS V14.00,2013-03-31 02:09:00,
2013-03-30 19:15:00,64.6,57.2,29.92,North,353,0.0,1.0,77,0.02,,BKN090,0.02,VWS V14.00,2013-03-31 02:15:00,
2013-03-30 19:20:00,64.3,56.6,29.92,North,353,0.0,1.0,76,0.02,,BKN090,0.02,VWS V14.00,2013-03-31 02:20:00,
2013-03-30 19:25:00,64.1,57.8,29.91,North,353,0.0,1.0,80,0.02,,BKN090,0.02,VWS V14.00,2013-03-31 02:25:00,
2013-03-30 19:30:00,63.9,57.3,29.93,North,353,0.0,1.0,79,0.02,,BKN090,0.03,VWS V14.00,2013-03-31 02:30:00,
2013-03-30 19:35:00,63.6,57.3,29.92,North,353,0.0,0.0,80,0.02,,BKN090,0.03,VWS V14.00,2013-03-31 02:35:00,
2013-03-30 19:40:00,62.9,56.6,29.91,North,353,0.0,0.0,80,0.02,,BKN090,0.03,VWS V14.00,2013-03-31 02:40:00,
2013-03-30 19:45:00,62.5,57.3,29.92,North,353,0.0,0.0,83,0.03,,BKN090,0.04,VWS V14.00,2013-03-31 02:45:00,
2013-03-30 19:50:00,62.5,57.6,29.91,North,353,0.0,0.0,84,0.03,,-RA,0.04,VWS V14.00,2013-03-31 02:50:00,
2013-03-30 19:55:00,62.2,57.6,29.91,North,353,0.0,0.0,85,0.02,,-RA,0.04,VWS V14.00,2013-03-31 02:55:00,
2013-03-30 20:00:00,62.2,57.6,29.91,North,353,0.0,0.0,85,0.02,,-RA,0.00,VWS V14.00,2013-03-31 03:00:00,
2013-03-30 20:05:00,61.9,57.0,29.91,North,353,0.0,0.0,84,0.02,,RA,0.04,VWS V14.00,2013-03-31 03:05:00,
2013-03-30 20:10:00,62.1,57.5,29.91,North,353,0.0,0.0,85,0.02,,RA,0.04,VWS V14.00,2013-03-31 03:10:00,
2013-03-30 20:15:00,61.9,57.7,29.91,North,353,0.0,0.0,86,0.03,,RA,0.05,VWS V14.00,2013-03-31 03:15:00,
2013-03-30 20:20:00,61.6,57.4,29.92,North,353,0.0,0.0,86,0.03,,RA,0.05,VWS V14.00,2013-03-31 03:20:00,
2013-03-30 20:25:00,61.7,57.5,29.92,North,353,0.0,0.0,86,0.02,,RA,0.05,VWS V14.00,2013-03-31 03:25:00,
2013-03-30 20:30:00,61.5,57.3,29.92,North,353,0.0,0.0,86,0.02,,RA,0.05,VWS V14.00,2013-03-31 03:30:00,
2013-03-30 20:35:00,61.4,56.9,29.93,North,353,0.0,0.0,85,0.02,,RA,0.05,VWS V14.00,2013-03-31 03:35:00,
2013-03-30 20:40:00,61.1,56.9,29.93,North,353,0.0,0.0,86,0.02,,RA,0.05,VWS V14.00,2013-03-31 03:40:00,
2013-03-30 20:45:00,61.2,57.0,29.93,North,353,0.0,0.0,86,0.02,,RA,0.05,VWS V14.00,2013-03-31 03:45:00,
2013-03-30 20:50:00,61.1,56.9,29.94,North,353,0.0,0.0,86,0.01,,-RA,0.05,VWS V14.00,2013-03-31 03:50:00,
2013-03-30 20:55:00,60.9,56.7,29.93,North,353,0.0,0.0,86,0.01,,-RA,0.05,VWS V14.00,2013-03-31 03:55:00,
2013-03-30 21:00:00,61.0,57.1,29.93,North,353,0.0,0.0,87,0.01,,-RA,0.05,VWS V14.00,2013-03-31 04:00:00,
2013-03-30 21:05:00,60.8,56.9,29.93,North,353,0.0,0.0,87,0.01,,OVC090,0.05,VWS V14.00,2013-03-31 04:05:00,
2013-03-30 21:10:00,60.6,56.7,29.93,North,353,0.0,0.0,87,0.01,,OVC090,0.05,VWS V14.00,2013-03-31 04:10:00,
2013-03-30 21:15:00,60.8,56.9,29.93,North,353,0.0,0.0,87,0.01,,OVC090,0.05,VWS V14.00,2013-03-31 04:15:00,
2013-03-30 21:20:00,60.4,56.5,29.93,North,353,0.0,0.0,87,0.01,,OVC090,0.05,VWS V14.00,2013-03-31 04:20:00,
2013-03-30 21:25:00,60.7,57.1,29.92,North,353,0.0,0.0,88,0.01,,OVC090,0.05,VWS V14.00,2013-03-31 04:25:00,
2013-03-30 21:30:00,60.5,56.9,29.92,North,353,0.0,0.0,88,0.01,,OVC090,0.05,VWS V14.00,2013-03-31 04:30:00,
2013-03-30 21:35:00,60.4,57.2,29.92,North,353,0.0,0.0,89,0.01,,OVC090,0.05,VWS V14.00,2013-03-31 04:35:00,
2013-03-30 21:40:00,60.2,57.0,29.92,North,353,0.0,0.0,89,0.01,,OVC090,0.05,VWS V14.00,2013-03-31 04:40:00,
2013-03-30 21:45:00,59.8,56.6,29.93,North,353,0.0,0.0,89,0.01,,OVC095,0.05,VWS V14.00,2013-03-31 04:45:00,
2013-03-30 21:50:00,59.9,56.0,29.92,North,353,0.0,0.0,87,0.01,,OVC095,0.05,VWS V14.00,2013-03-31 04:50:00,
2013-03-30 21:55:00,59.9,56.3,29.93,North,353,0.0,0.0,88,0.01,,OVC095,0.05,VWS V14.00,2013-03-31 04:55:00,
2013-03-30 22:00:00,59.9,56.7,29.93,North,353,0.0,0.0,89,0.00,,OVC095,0.05,VWS V14.00,2013-03-31 05:00:00,
2013-03-30 22:05:00,59.6,56.4,29.93,North,353,0.0,0.0,89,0.00,,OVC095,0.05,VWS V14.00,2013-03-31 05:05:00,
2013-03-30 22:10:00,59.8,57.2,29.93,North,353,0.0,0.0,91,0.00,,OVC095,0.05,VWS V14.00,2013-03-31 05:10:00,
2013-03-30 22:15:00,59.7,57.1,29.93,North,353,0.0,0.0,91,0.00,,OVC095,0.05,VWS V14.00,2013-03-31 05:15:00,
2013-03-30 22:20:00,59.6,57.0,29.93,North,353,0.0,0.0,91,0.00,,OVC095,0.05,VWS V14.00,2013-03-31 05:20:00,
2013-03-30 22:25:00,59.6,57.0,29.93,North,353,0.0,0.0,91,0.00,,OVC095,0.05,VWS V14.00,2013-03-31 05:25:00,
2013-03-30 22:30:00,59.6,57.0,29.93,North,353,0.0,0.0,91,0.00,,OVC095,0.05,VWS V14.00,2013-03-31 05:30:00,
2013-03-30 22:35:00,59.6,57.0,29.93,North,353,0.0,0.0,91,0.00,,OVC095,0.05,VWS V14.00,2013-03-31 05:35:00,
2013-03-30 22:40:00,59.3,56.7,29.93,North,353,0.0,0.0,91,0.00,,OVC095,0.05,VWS V14.00,2013-03-31 05:40:00,
2013-03-30 22:45:00,59.3,56.7,29.93,North,353,0.0,0.0,91,0.00,,-RA,0.05,VWS V14.00,2013-03-31 05:45:00,
2013-03-30 22:50:00,59.2,56.6,29.94,North,353,0.0,0.0,91,0.00,,-RA,0.05,VWS V14.00,2013-03-31 05:50:00,
2013-03-30 22:55:00,59.2,56.6,29.94,North,353,0.0,0.0,91,0.00,,-RA,0.05,VWS V14.00,2013-03-31 05:55:00,
2013-03-30 23:00:00,59.2,56.6,29.93,North,353,0.0,0.0,91,0.00,,-RA,0.05,VWS V14.00,2013-03-31 06:00:00,
2013-03-30 23:05:00,59.0,56.4,29.94,North,353,0.0,0.0,91,0.00,,-RA,0.05,VWS V14.00,2013-03-31 06:05:00,
2013-03-30 23:10:00,59.3,57.0,29.94,North,353,0.0,0.0,92,0.00,,-RA,0.05,VWS V14.00,2013-03-31 06:10:00,
2013-03-30 23:15:00,59.0,56.7,29.94,North,353,0.0,0.0,92,0.00,,-RA,0.05,VWS V14.00,2013-03-31 06:15:00,
2013-03-30 23:20:00,58.9,56.6,29.93,North,353,0.0,0.0,92,0.00,,-RA,0.05,VWS V14.00,2013-03-31 06:20:00,
2013-03-30 23:25:00,59.0,56.7,29.93,North,353,0.0,0.0,92,0.00,,-RA,0.05,VWS V14.00,2013-03-31 06:25:00,
2013-03-30 23:30:00,58.8,56.2,29.94,North,353,0.0,0.0,91,0.00,,-RA,0.05,VWS V14.00,2013-03-31 06:30:00,
2013-03-30 23:35:00,59.0,56.4,29.93,North,353,0.0,0.0,91,0.00,,-RA,0.05,VWS V14.00,2013-03-31 06:35:00,
2013-03-30 23:40:00,58.7,56.1,29.93,North,353,0.0,0.0,91,0.00,,-RA,0.05,VWS V14.00,2013-03-31 06:40:00,
2013-03-30 23:45:00,58.8,56.5,29.93,North,353,0.0,0.0,92,0.00,,OVC100,0.05,VWS V14.00,2013-03-31 06:45:00,
2013-03-30 23:50:00,58.6,56.3,29.93,North,353,0.0,0.0,92,0.00,,OVC100,0.05,VWS V14.00,2013-03-31 06:50:00,
2013-03-30 23:55:00,58.6,56.3,29.93,North,353,0.0,0.0,92,0.00,,OVC100,0.05,VWS V14.00,2013-03-31 06:55:00,